Wind Cave National Park, SD

1:04 AM MDT on October 26, 2014 (GMT -0600)
Custer County | Change Station
CLOSE
Current Station
Airport
Location: Custer,
Elevation: 5600 ft
Nearby Weather Stations

Elev 5600 ft 43.73 °N, 103.62 °W | Updated 11 minutes ago

Partly Cloudy
Partly Cloudy
53 °F
Feels Like 53 °F
N
9
Wind Variable Wind from WSW

Today
High -- | Low -- °F
--% Chance of Precip.
Yesterday
High -- | Low -- °F
Precip. -- in
7:22 AM 5:53 PM
Waxing Crescent, 6% visible
Pressure 29.73 in
Visibility 10.0 miles
Clouds Clear
Dew Point 31 °F
Humidity 43%
Rainfall 0.00 in
Snow Depth Not available.
UV 0 out of 12
Pollen 2.10 out of 12
Air Quality Not available.
Flu Activity Sporadic
METAR KCUT 260653Z AUTO 25008KT 10SM CLR 12/M01 A2989 RMK AO2 SLP067 T01171006 402060000

More Conditions Fewer Conditions

Pressure 29.73 in
Visibility 10.0 miles
Clouds Clear
Dew Point 31 °F
Humidity 43%
Rainfall 0.00 in
Snow Depth Not available.
UV 0 out of 12
Pollen 2.10 out of 12
Air Quality Not available.
Flu Activity Sporadic
METAR KCUT 260653Z AUTO 25008KT 10SM CLR 12/M01 A2989 RMK AO2 SLP067 T01171006 402060000

More Conditions Fewer Conditions

10-Day Weather Forecast

Almanac

Astronomy

Oct. 26, 2014 Rise Set
Actual Time 7:22 AM MDT 5:53 PM MDT
Civil Twilight 6:53 AM MDT 6:23 PM MDT
Nautical Twilight 6:19 AM MDT 6:56 PM MDT
Astronomical Twilight 5:46 AM MDT 7:29 PM MDT
Moon 10:06 AM MDT 8:03 PM MDT
Length of Visible Light 11h 29m
Length of Day
10h 30m
Tomorrow will be 2m 45s shorter.
Waxing Crescent, 6% of the Moon is Illuminated
Today
Waxing Crescent
Oct 30
First Quarter
Nov 6
Full
Nov 14
Last Quarter
Nov 22
New

Today's Extremes

State Highs State Lows

Community

WunderPhotos

Upload Photos

1,765,115 photos uploaded!

Nearby

Snow Depth

Station Depth Elevation
Blind Park 0 in 6890 ft

Earthquake Activity

City Distance Mag. Time & Date
No recent earthquake activity has been reported nearby.
Minimum magnitude displayed is 2.5.

Coastal Water Temperatures

Place Temperature
No Stations Reporting

Nearby Weather Stations